createdAt,value
2018-10-01T00:02:19.997Z,2.67
2018-10-01T00:04:48.259Z,2.73
2018-10-01T00:07:16.551Z,3.20
2018-10-01T00:09:44.781Z,2.83
2018-10-01T00:12:13.167Z,3.40
2018-10-01T00:14:41.454Z,3.03
2018-10-01T00:17:09.753Z,2.93
2018-10-01T00:19:43.428Z,3.47
2018-10-01T00:22:17.207Z,3.60
2018-10-01T00:24:45.543Z,3.07
2018-10-01T00:27:13.870Z,2.40
2018-10-01T00:29:42.162Z,3.33
2018-10-01T00:32:10.499Z,3.30
2018-10-01T00:34:38.817Z,2.70
2018-10-01T00:37:07.129Z,3.03
2018-10-01T00:39:35.565Z,3.70
2018-10-01T00:42:03.929Z,2.67
2018-10-01T00:44:32.226Z,3.27
2018-10-01T00:47:00.535Z,2.67
2018-10-01T00:49:28.793Z,3.30
2018-10-01T00:51:57.080Z,2.90
2018-10-01T00:54:25.383Z,3.10
2018-10-01T00:56:53.735Z,3.17
2018-10-01T00:59:22.012Z,3.60
2018-10-01T01:01:50.298Z,2.90
2018-10-01T01:04:18.560Z,2.80
2018-10-01T01:06:46.897Z,3.63
2018-10-01T01:09:15.208Z,3.27
2018-10-01T01:11:43.509Z,3.70
2018-10-01T01:14:11.846Z,3.47
2018-10-01T01:16:40.223Z,2.97
2018-10-01T01:19:08.518Z,3.37
2018-10-01T01:21:36.803Z,2.90
2018-10-01T01:24:05.080Z,4.00
2018-10-01T01:26:33.364Z,3.87
2018-10-01T01:29:01.633Z,3.27
2018-10-01T01:31:29.916Z,2.40
2018-10-01T01:33:58.238Z,3.13
2018-10-01T01:36:26.573Z,2.90
2018-10-01T01:38:54.859Z,2.90
2018-10-01T01:41:23.138Z,3.10
2018-10-01T01:43:51.418Z,3.33
2018-10-01T01:46:19.716Z,3.43
2018-10-01T01:48:47.948Z,3.17
2018-10-01T01:51:17.444Z,2.73
2018-10-01T01:53:45.744Z,2.63
2018-10-01T01:56:14.049Z,3.13
2018-10-01T01:58:42.378Z,2.90
2018-10-01T02:01:10.675Z,2.73
2018-10-01T02:03:38.975Z,3.27
2018-10-01T02:06:07.279Z,3.63
2018-10-01T02:08:35.729Z,3.63
2018-10-01T02:11:04.083Z,2.87
2018-10-01T02:13:32.373Z,3.20
2018-10-01T02:16:00.682Z,2.70
2018-10-01T02:18:29.077Z,3.20
2018-10-01T02:20:57.393Z,3.30
2018-10-01T02:23:25.759Z,3.37
2018-10-01T02:25:54.081Z,2.60
2018-10-01T02:28:22.456Z,3.27
2018-10-01T02:30:50.785Z,2.70
2018-10-01T02:33:19.102Z,2.97
2018-10-01T02:35:47.371Z,3.00
2018-10-01T02:38:15.639Z,3.30
2018-10-01T02:40:44.007Z,2.87
2018-10-01T02:43:12.275Z,2.93
2018-10-01T02:45:40.809Z,2.57
2018-10-01T02:48:09.066Z,4.40
2018-10-01T02:50:37.361Z,4.80
2018-10-01T02:53:10.984Z,6.67
2018-10-01T02:55:39.323Z,6.80
2018-10-01T02:58:07.598Z,6.30
2018-10-01T03:00:35.915Z,5.10
2018-10-01T03:03:04.174Z,5.90
2018-10-01T03:05:32.434Z,5.63
2018-10-01T03:08:00.723Z,5.67
2018-10-01T03:10:29.001Z,5.00
2018-10-01T03:12:57.272Z,5.60
2018-10-01T03:15:25.636Z,4.27
2018-10-01T03:17:53.925Z,4.97
2018-10-01T03:20:22.291Z,4.23
2018-10-01T03:22:50.604Z,4.67
2018-10-01T03:25:18.874Z,4.27
2018-10-01T03:27:47.147Z,4.23
2018-10-01T03:30:16.417Z,5.97
2018-10-01T03:32:44.822Z,4.77
2018-10-01T03:35:13.191Z,3.60
2018-10-01T03:37:41.541Z,3.10
2018-10-01T03:40:09.926Z,3.87
2018-10-01T03:42:38.256Z,3.63
2018-10-01T03:45:06.544Z,3.77
2018-10-01T03:47:34.883Z,3.77
2018-10-01T03:50:03.264Z,3.70
2018-10-01T03:52:31.546Z,3.97
2018-10-01T03:54:59.845Z,3.97
2018-10-01T03:57:28.208Z,3.90
2018-10-01T03:59:56.611Z,3.63
2018-10-01T04:02:24.961Z,3.50
2018-10-01T04:04:53.271Z,3.67
2018-10-01T04:07:21.620Z,2.90
2018-10-01T04:09:49.909Z,3.13
2018-10-01T04:12:18.211Z,3.20
2018-10-01T04:14:46.606Z,3.20
2018-10-01T04:17:14.950Z,3.27
2018-10-01T04:19:43.240Z,3.57
2018-10-01T04:22:11.674Z,2.80
2018-10-01T04:24:40.029Z,3.00
2018-10-01T04:27:08.399Z,3.67
2018-10-01T04:29:36.725Z,3.40
2018-10-01T04:32:05.033Z,2.80
2018-10-01T04:34:33.413Z,3.13
2018-10-01T04:37:01.771Z,2.67
2018-10-01T04:39:30.168Z,2.90
2018-10-01T04:41:58.518Z,2.77
2018-10-01T04:44:26.827Z,2.50
2018-10-01T04:46:55.247Z,2.30
2018-10-01T04:49:23.577Z,2.70
2018-10-01T04:51:51.835Z,2.17
2018-10-01T04:54:20.138Z,2.80
2018-10-01T04:56:48.436Z,3.17
2018-10-01T04:59:17.686Z,2.67
2018-10-01T05:01:46.067Z,2.60
2018-10-01T05:04:14.412Z,2.80
2018-10-01T05:06:42.732Z,2.57
2018-10-01T05:09:11.729Z,2.33
2018-10-01T05:11:40.024Z,2.53
2018-10-01T05:14:08.468Z,2.33
2018-10-01T05:16:36.768Z,3.63
2018-10-01T05:19:05.179Z,2.50
2018-10-01T05:21:33.543Z,2.60
2018-10-01T05:24:01.952Z,2.53
2018-10-01T05:26:30.323Z,3.33
2018-10-01T05:28:58.863Z,2.70
2018-10-01T05:31:27.147Z,2.67
2018-10-01T05:33:55.419Z,2.77
2018-10-01T05:36:23.859Z,2.70
2018-10-01T05:38:52.172Z,2.87
2018-10-01T05:41:21.502Z,2.13
2018-10-01T05:43:49.953Z,2.80
2018-10-01T05:46:18.265Z,2.17
2018-10-01T05:48:46.651Z,2.40
2018-10-01T05:51:15.111Z,2.80
2018-10-01T05:53:43.379Z,2.13
2018-10-01T05:56:11.701Z,2.60
2018-10-01T05:58:40.036Z,2.23
2018-10-01T06:01:08.508Z,2.50
2018-10-01T06:03:36.836Z,2.77
2018-10-01T06:06:05.201Z,2.47
2018-10-01T06:08:33.648Z,2.50
2018-10-01T06:11:01.946Z,2.73
2018-10-01T06:13:30.232Z,2.50
2018-10-01T06:15:58.622Z,2.90
2018-10-01T06:18:26.965Z,2.70
2018-10-01T06:20:55.477Z,2.90
2018-10-01T06:23:23.857Z,2.60
2018-10-01T06:25:52.774Z,2.20
2018-10-01T06:28:21.252Z,2.67
2018-10-01T06:30:49.600Z,2.87
2018-10-01T06:33:17.949Z,3.00
2018-10-01T06:35:46.252Z,2.90
2018-10-01T06:38:14.508Z,3.43
2018-10-01T06:40:42.842Z,2.97
2018-10-01T06:43:11.295Z,3.17
2018-10-01T06:45:39.694Z,3.47
2018-10-01T06:48:08.040Z,3.23
2018-10-01T06:50:36.339Z,2.90
2018-10-01T06:53:04.689Z,2.97
2018-10-01T06:55:32.989Z,2.83
2018-10-01T06:58:01.494Z,3.07
2018-10-01T07:00:29.884Z,2.53
2018-10-01T07:02:58.325Z,3.00
2018-10-01T07:05:26.727Z,3.63
2018-10-01T07:07:55.095Z,2.70
2018-10-01T07:10:23.681Z,3.00
2018-10-01T07:12:52.076Z,3.27
2018-10-01T07:15:20.491Z,3.07
2018-10-01T07:17:48.803Z,2.67
2018-10-01T07:20:17.069Z,3.63
2018-10-01T07:22:45.538Z,3.20
2018-10-01T07:25:13.838Z,3.23
2018-10-01T07:27:42.216Z,3.13
2018-10-01T07:30:10.617Z,2.57
2018-10-01T07:32:39.040Z,2.73
2018-10-01T07:35:07.587Z,3.00
2018-10-01T07:37:35.953Z,3.03
2018-10-01T07:40:04.440Z,3.07
2018-10-01T07:42:32.974Z,2.63
2018-10-01T07:45:01.463Z,2.97
2018-10-01T07:47:29.772Z,3.57
2018-10-01T07:49:58.180Z,2.90
2018-10-01T07:52:26.515Z,2.57
2018-10-01T08:02:03.169Z,2.80
2018-10-01T08:04:31.515Z,3.77
2018-10-01T08:07:00.986Z,3.30
2018-10-01T08:09:29.380Z,3.37
2018-10-01T08:11:57.712Z,3.87
2018-10-01T08:14:26.183Z,3.80
2018-10-01T08:16:54.461Z,3.70
2018-10-01T08:19:22.838Z,3.20
2018-10-01T08:21:51.205Z,3.10
2018-10-01T08:24:19.607Z,3.50
2018-10-01T08:26:48.000Z,3.57
2018-10-01T08:29:16.355Z,3.37
2018-10-01T08:31:44.816Z,3.33
2018-10-01T08:34:13.101Z,3.53
2018-10-01T08:36:41.536Z,3.73
2018-10-01T08:39:12.081Z,3.17
2018-10-01T08:41:41.001Z,2.73
2018-10-01T08:44:09.817Z,3.37
2018-10-01T08:46:38.102Z,3.33
2018-10-01T08:49:21.868Z,2.80
2018-10-01T08:51:57.455Z,3.17
2018-10-01T08:54:34.239Z,3.07
2018-10-01T08:57:02.639Z,2.90
2018-10-01T08:59:31.237Z,3.47
2018-10-01T09:02:00.386Z,3.80
2018-10-01T09:04:28.716Z,4.03
2018-10-01T09:06:57.058Z,3.27
2018-10-01T09:09:25.425Z,3.60
2018-10-01T09:11:53.729Z,3.43
2018-10-01T09:14:22.177Z,4.07
2018-10-01T09:16:50.529Z,3.87
2018-10-01T09:19:18.893Z,3.40
2018-10-01T09:21:48.369Z,3.73
2018-10-01T09:24:16.800Z,4.27
2018-10-01T09:26:45.120Z,3.83
2018-10-01T09:29:13.617Z,3.53
2018-10-01T09:33:06.463Z,3.57
2018-10-01T09:35:35.043Z,4.40
2018-10-01T09:38:03.406Z,4.47
2018-10-01T09:40:31.836Z,4.57
2018-10-01T09:43:00.174Z,3.60
2018-10-01T09:45:28.450Z,4.43
2018-10-01T09:47:56.792Z,4.27
2018-10-01T09:50:25.179Z,4.40
2018-10-01T09:52:53.528Z,3.97
2018-10-01T09:55:21.888Z,4.20
2018-10-01T09:57:50.246Z,3.87
2018-10-01T10:00:24.052Z,4.13
2018-10-01T10:02:52.407Z,4.80
2018-10-01T10:05:20.734Z,4.37
2018-10-01T10:07:49.197Z,4.60
2018-10-01T10:10:17.571Z,3.53
2018-10-01T10:12:45.954Z,4.10
2018-10-01T10:15:14.542Z,4.20
2018-10-01T10:17:42.891Z,4.40
2018-10-01T10:20:11.586Z,3.67
2018-10-01T10:22:39.923Z,3.80
2018-10-01T10:25:08.348Z,3.83
2018-10-01T10:27:36.657Z,4.53
2018-10-01T10:30:05.495Z,4.30
2018-10-01T10:32:33.929Z,4.07
2018-10-01T10:35:02.213Z,4.40
2018-10-01T10:37:30.596Z,3.83
2018-10-01T10:39:58.994Z,4.90
2018-10-01T10:42:27.329Z,4.07
2018-10-01T10:44:55.669Z,4.13
2018-10-01T10:47:23.980Z,4.00
2018-10-01T10:49:52.262Z,4.23
2018-10-01T10:52:20.790Z,4.20
2018-10-01T10:54:49.108Z,3.20
2018-10-01T10:57:17.396Z,4.40
2018-10-01T10:59:45.735Z,4.30
2018-10-01T11:02:14.103Z,4.07
2018-10-01T11:04:42.465Z,4.67
2018-10-01T11:07:10.818Z,4.20
2018-10-01T11:09:39.236Z,3.30
2018-10-01T11:12:07.657Z,3.00
2018-10-01T11:14:35.977Z,3.50
2018-10-01T11:17:04.419Z,3.67
2018-10-01T11:19:32.772Z,2.97
2018-10-01T11:22:01.174Z,3.40
2018-10-01T11:24:29.525Z,3.60
2018-10-01T11:26:57.929Z,3.07
2018-10-01T11:29:26.313Z,3.10
2018-10-01T11:31:54.751Z,2.83
2018-10-01T11:34:23.059Z,2.53
2018-10-01T11:36:51.362Z,2.63
2018-10-01T11:39:19.738Z,3.40
2018-10-01T11:41:48.079Z,2.90
2018-10-01T11:44:16.405Z,2.53
2018-10-01T11:46:44.698Z,2.80
2018-10-01T11:49:13.100Z,2.57
2018-10-01T11:51:41.535Z,2.80
2018-10-01T11:54:09.833Z,3.70
2018-10-01T11:56:38.254Z,2.43
2018-10-01T11:59:06.657Z,2.63
2018-10-01T12:01:35.001Z,3.13
2018-10-01T12:04:03.393Z,3.47
2018-10-01T12:06:31.750Z,3.63
2018-10-01T12:09:00.096Z,3.53
2018-10-01T12:11:28.469Z,3.43
2018-10-01T12:13:56.723Z,3.57
2018-10-01T12:16:25.035Z,2.40
2018-10-01T12:18:53.407Z,1.87
2018-10-01T12:21:21.726Z,1.13
2018-10-01T12:23:50.062Z,1.10
2018-10-01T12:26:18.371Z,1.27
2018-10-01T12:28:46.716Z,1.50
2018-10-01T12:31:15.008Z,1.83
2018-10-01T12:33:43.423Z,1.17
2018-10-01T12:36:11.750Z,1.30
2018-10-01T12:38:40.014Z,0.93
2018-10-01T12:41:08.312Z,0.97
2018-10-01T12:43:36.584Z,1.23
2018-10-01T12:46:04.883Z,1.10
2018-10-01T12:48:33.241Z,0.90
2018-10-01T12:51:01.542Z,0.77
2018-10-01T12:53:29.940Z,0.50
2018-10-01T12:55:58.299Z,0.60
2018-10-01T12:58:26.724Z,0.63
2018-10-01T13:00:55.036Z,0.83
2018-10-01T13:03:23.286Z,0.90
2018-10-01T13:05:51.645Z,0.90
2018-10-01T13:08:20.007Z,1.00
2018-10-01T13:10:48.348Z,0.77
2018-10-01T13:13:16.611Z,0.60
2018-10-01T13:15:44.926Z,1.10
2018-10-01T13:18:13.496Z,1.47
2018-10-01T13:20:41.741Z,1.17
2018-10-01T13:23:10.046Z,1.20
2018-10-01T13:25:38.432Z,1.50
2018-10-01T13:28:06.890Z,1.10
2018-10-01T13:30:35.346Z,1.23
2018-10-01T13:33:03.667Z,1.20
2018-10-01T13:35:32.159Z,1.03
2018-10-01T13:38:00.567Z,1.27
2018-10-01T13:40:28.889Z,0.97
2018-10-01T13:42:57.234Z,1.13
2018-10-01T13:45:25.593Z,1.27
2018-10-01T13:47:54.058Z,0.80
2018-10-01T13:50:22.470Z,0.90
2018-10-01T13:52:50.983Z,0.50
2018-10-01T13:55:20.783Z,1.50
2018-10-01T13:57:49.138Z,0.90
2018-10-01T14:00:17.448Z,0.63
2018-10-01T14:02:45.883Z,0.57
2018-10-01T14:05:14.280Z,1.60
2018-10-01T14:07:42.872Z,1.07
2018-10-01T14:10:11.201Z,1.17
2018-10-01T14:12:39.865Z,0.97
2018-10-01T14:15:08.144Z,1.03
2018-10-01T14:17:36.593Z,1.00
2018-10-01T14:20:06.109Z,0.90
2018-10-01T14:22:42.165Z,1.00
2018-10-01T14:25:11.212Z,0.90
2018-10-01T14:27:40.479Z,1.33
2018-10-01T14:30:09.912Z,0.80
2018-10-01T14:32:39.287Z,0.63
2018-10-01T14:35:07.740Z,1.00
2018-10-01T14:37:36.122Z,1.27
2018-10-01T14:40:04.465Z,1.03
2018-10-01T14:42:32.909Z,0.90
2018-10-01T14:45:01.181Z,0.70
2018-10-01T14:47:29.630Z,1.07
2018-10-01T14:49:58.014Z,1.30
2018-10-01T14:52:26.429Z,0.80
2018-10-01T14:54:54.804Z,1.03
2018-10-01T14:57:23.091Z,0.80
2018-10-01T14:59:51.431Z,1.00
2018-10-01T15:02:19.934Z,1.00
2018-10-01T15:04:48.277Z,1.03
2018-10-01T15:07:16.756Z,1.00
2018-10-01T15:09:45.094Z,1.10
2018-10-01T15:12:13.564Z,1.13
2018-10-01T15:14:41.859Z,0.97
2018-10-01T15:17:10.094Z,1.40
2018-10-01T15:19:38.496Z,0.73
2018-10-01T15:22:06.832Z,0.80
2018-10-01T15:24:35.279Z,0.63
2018-10-01T15:27:03.540Z,0.70
2018-10-01T15:29:31.863Z,0.80
2018-10-01T15:32:00.209Z,0.90
2018-10-01T15:34:28.595Z,1.00
2018-10-01T15:36:56.855Z,0.53
2018-10-01T15:39:25.245Z,1.27
2018-10-01T15:41:53.846Z,0.60
2018-10-01T15:44:22.268Z,1.13
2018-10-01T15:46:50.564Z,0.80
2018-10-01T15:49:18.855Z,1.17
2018-10-01T15:51:47.207Z,0.70
2018-10-01T15:54:15.528Z,1.63
2018-10-01T15:56:43.757Z,0.73
2018-10-01T15:59:12.065Z,1.00
2018-10-01T16:01:40.345Z,0.60
2018-10-01T16:04:08.707Z,0.80
2018-10-01T16:06:36.992Z,1.43
2018-10-01T16:09:08.110Z,1.10
2018-10-01T16:11:36.451Z,0.90
2018-10-01T16:14:04.953Z,0.57
2018-10-01T16:16:33.257Z,0.80
2018-10-01T16:19:01.579Z,1.30
2018-10-01T16:21:30.116Z,1.33
2018-10-01T16:23:58.535Z,0.87
2018-10-01T16:26:26.892Z,0.77
2018-10-01T16:28:55.604Z,1.00
2018-10-01T16:31:23.928Z,1.20
2018-10-01T16:36:28.287Z,0.80
2018-10-01T16:38:56.608Z,0.90
2018-10-01T16:41:25.028Z,1.00
2018-10-01T16:43:53.373Z,0.80
2018-10-01T16:46:21.714Z,1.13
2018-10-01T16:48:50.046Z,0.97
2018-10-01T16:51:18.505Z,1.37
2018-10-01T16:53:46.875Z,1.40
2018-10-01T16:56:15.246Z,1.50
2018-10-01T16:58:43.554Z,1.53
2018-10-01T17:01:12.819Z,1.60
2018-10-01T17:03:41.212Z,1.50
2018-10-01T17:06:09.549Z,1.57
2018-10-01T17:08:37.851Z,1.43
2018-10-01T17:11:06.128Z,1.47
2018-10-01T17:13:34.453Z,1.20
2018-10-01T17:16:02.819Z,1.47
2018-10-01T17:18:31.162Z,1.90
2018-10-01T17:20:59.426Z,1.73
2018-10-01T17:23:27.707Z,1.90
2018-10-01T17:25:56.015Z,1.43
2018-10-01T17:28:24.443Z,2.37
2018-10-01T17:30:53.044Z,1.50
2018-10-01T17:33:25.314Z,1.60
2018-10-01T17:35:53.780Z,1.77
2018-10-01T17:38:23.185Z,1.60
2018-10-01T17:40:51.493Z,1.60
2018-10-01T17:43:19.866Z,1.20
2018-10-01T17:45:48.155Z,1.37
2018-10-01T17:48:16.414Z,1.27
2018-10-01T17:50:44.708Z,2.23
2018-10-01T17:53:13.023Z,1.20
2018-10-01T17:55:41.380Z,1.30
2018-10-01T17:58:09.718Z,0.80
2018-10-01T18:00:38.080Z,1.40
2018-10-01T18:03:06.513Z,1.20
2018-10-01T18:05:34.793Z,1.10
2018-10-01T18:08:03.067Z,0.90
2018-10-01T18:10:31.444Z,0.97
2018-10-01T18:12:59.712Z,0.80
2018-10-01T18:15:28.009Z,0.90
2018-10-01T18:17:56.475Z,0.80
2018-10-01T18:20:24.767Z,0.77
2018-10-01T18:22:53.124Z,1.07
2018-10-01T18:25:21.436Z,0.80
2018-10-01T18:27:49.809Z,0.83
2018-10-01T18:30:18.283Z,1.30
2018-10-01T18:32:46.594Z,0.80
2018-10-01T18:35:14.989Z,0.43
2018-10-01T18:37:43.344Z,0.87
2018-10-01T18:40:13.484Z,1.30
2018-10-01T18:42:42.281Z,0.70
2018-10-01T18:45:10.765Z,0.70
2018-10-01T18:47:39.215Z,0.60
2018-10-01T18:50:07.861Z,0.60
2018-10-01T18:52:36.187Z,0.50
2018-10-01T18:55:04.539Z,0.70
2018-10-01T18:57:33.005Z,0.60
2018-10-01T19:00:01.406Z,0.50
2018-10-01T19:02:29.672Z,0.40
2018-10-01T19:04:58.074Z,0.60
2018-10-01T19:07:26.560Z,0.80
2018-10-01T19:09:54.907Z,0.57
2018-10-01T19:12:23.299Z,0.53
2018-10-01T19:14:51.690Z,0.50
2018-10-01T19:17:20.000Z,0.60
2018-10-01T19:19:48.387Z,0.57
2018-10-01T19:22:16.756Z,1.30
2018-10-01T19:24:45.082Z,0.57
2018-10-01T19:27:13.509Z,0.63
2018-10-01T19:29:42.044Z,0.67
2018-10-01T19:32:10.377Z,0.57
2018-10-01T19:34:38.826Z,0.70
2018-10-01T19:37:07.266Z,0.70
2018-10-01T19:39:35.599Z,0.60
2018-10-01T19:42:04.047Z,0.67
2018-10-01T19:44:32.431Z,0.70
2018-10-01T19:47:00.858Z,0.53
2018-10-01T19:49:29.113Z,0.80
2018-10-01T19:51:57.755Z,0.67
2018-10-01T19:54:26.124Z,0.87
2018-10-01T19:56:54.605Z,0.50
2018-10-01T19:59:23.019Z,0.60
2018-10-01T20:01:51.389Z,0.50
2018-10-01T20:04:19.804Z,0.90
2018-10-01T20:06:48.199Z,0.60
2018-10-01T20:09:16.573Z,0.70
2018-10-01T20:11:45.187Z,0.50
2018-10-01T20:14:13.747Z,0.50
2018-10-01T20:16:42.411Z,0.57
2018-10-01T20:19:10.759Z,0.60
2018-10-01T20:21:39.109Z,0.70
2018-10-01T20:24:07.475Z,0.60
2018-10-01T20:26:35.956Z,0.40
2018-10-01T20:29:04.554Z,0.60
2018-10-01T20:31:32.701Z,0.53
2018-10-01T20:34:01.049Z,0.77
2018-10-01T20:36:29.487Z,0.50
2018-10-01T20:38:57.844Z,0.57
2018-10-01T20:41:26.253Z,0.50
2018-10-01T20:43:54.680Z,0.50
2018-10-01T20:46:27.636Z,1.50
2018-10-01T20:48:55.949Z,0.70
2018-10-01T20:51:24.328Z,0.80
2018-10-01T20:53:52.711Z,0.50
2018-10-01T20:56:21.209Z,0.80
2018-10-01T20:58:49.623Z,0.37
2018-10-01T21:01:18.047Z,0.40
2018-10-01T21:03:46.433Z,0.50
2018-10-01T21:06:14.816Z,0.40
2018-10-01T21:08:43.200Z,0.70
2018-10-01T21:11:11.583Z,0.60
2018-10-01T21:13:40.023Z,0.50
2018-10-01T21:16:08.423Z,0.57
2018-10-01T21:18:36.929Z,0.70
2018-10-01T21:21:05.302Z,0.60
2018-10-01T21:23:33.723Z,0.57
2018-10-01T21:26:02.164Z,0.47
2018-10-01T21:28:30.659Z,0.80
2018-10-01T21:30:59.016Z,0.77
2018-10-01T21:33:27.368Z,0.80
2018-10-01T21:35:55.659Z,0.60
2018-10-01T21:38:24.003Z,0.50
2018-10-01T21:40:52.253Z,0.67
2018-10-01T21:43:20.615Z,0.60
2018-10-01T21:45:48.938Z,0.90
2018-10-01T21:48:17.252Z,0.90
2018-10-01T21:50:45.569Z,0.80
2018-10-01T21:53:13.901Z,0.83
2018-10-01T21:58:33.982Z,1.10
2018-10-01T22:01:07.702Z,1.03
2018-10-01T22:03:36.004Z,0.40
2018-10-01T22:06:04.518Z,0.73
2018-10-01T22:08:32.859Z,0.50
2018-10-01T22:11:01.199Z,0.23
2018-10-01T22:13:29.484Z,0.60
2018-10-01T22:15:57.777Z,0.80
2018-10-01T22:18:26.040Z,0.90
2018-10-01T22:20:54.312Z,0.70
2018-10-01T22:23:22.622Z,1.00
2018-10-01T22:25:50.972Z,0.43
2018-10-01T22:28:19.274Z,0.50
2018-10-01T22:30:47.618Z,0.60
2018-10-01T22:33:15.915Z,0.77
2018-10-01T22:35:44.189Z,0.83
2018-10-01T22:38:12.456Z,0.57
2018-10-01T22:40:40.715Z,0.63
2018-10-01T22:43:09.027Z,0.77
2018-10-01T22:45:37.296Z,0.80
2018-10-01T22:48:05.624Z,1.17
2018-10-01T22:50:33.929Z,0.60
2018-10-01T22:53:02.212Z,0.70
2018-10-01T22:55:30.488Z,0.60
2018-10-01T22:57:58.818Z,1.20
2018-10-01T23:00:27.798Z,0.67
2018-10-01T23:02:56.261Z,0.80
2018-10-01T23:05:24.711Z,0.70
2018-10-01T23:07:53.392Z,0.90
2018-10-01T23:10:21.801Z,0.70
2018-10-01T23:12:50.259Z,0.90
2018-10-01T23:15:18.577Z,0.90
2018-10-01T23:17:46.806Z,1.20
2018-10-01T23:20:15.095Z,0.30
2018-10-01T23:22:43.407Z,0.70
2018-10-01T23:25:11.670Z,1.30
2018-10-01T23:27:39.904Z,0.60
2018-10-01T23:30:08.215Z,0.60
2018-10-01T23:32:36.451Z,0.90
2018-10-01T23:35:05.880Z,0.77
2018-10-01T23:37:34.142Z,0.90
2018-10-01T23:40:02.442Z,0.70
2018-10-01T23:42:30.734Z,0.57
2018-10-01T23:44:58.999Z,0.40
2018-10-01T23:47:27.277Z,1.00
2018-10-01T23:49:55.568Z,1.10
2018-10-01T23:52:23.854Z,0.80
2018-10-01T23:54:52.103Z,0.47
2018-10-01T23:57:20.367Z,0.60
2018-10-01T23:59:48.682Z,0.90
